sensor_id;sensor_type;location;lat;lon;timestamp;temperature;humidity
1107;DHT22;540;49.448;8.612;2023-04-15T00:02:14;8.80;95.90
1107;DHT22;540;49.448;8.612;2023-04-15T00:04:42;8.90;97.00
1107;DHT22;540;49.448;8.612;2023-04-15T00:07:10;8.70;98.40
1107;DHT22;540;49.448;8.612;2023-04-15T00:09:39;8.50;99.90
1107;DHT22;540;49.448;8.612;2023-04-15T00:12:07;8.50;99.90
1107;DHT22;540;49.448;8.612;2023-04-15T00:14:36;8.70;99.20
1107;DHT22;540;49.448;8.612;2023-04-15T00:17:04;8.50;98.30
1107;DHT22;540;49.448;8.612;2023-04-15T00:19:32;8.20;98.00
1107;DHT22;540;49.448;8.612;2023-04-15T00:22:00;8.30;98.20
1107;DHT22;540;49.448;8.612;2023-04-15T00:24:28;8.20;98.20
1107;DHT22;540;49.448;8.612;2023-04-15T00:26:58;8.40;98.10
1107;DHT22;540;49.448;8.612;2023-04-15T00:29:26;8.30;98.10
1107;DHT22;540;49.448;8.612;2023-04-15T00:31:53;8.50;98.00
1107;DHT22;540;49.448;8.612;2023-04-15T00:34:21;8.70;98.10
1107;DHT22;540;49.448;8.612;2023-04-15T00:36:49;8.50;97.70
1107;DHT22;540;49.448;8.612;2023-04-15T00:39:18;8.50;97.20
1107;DHT22;540;49.448;8.612;2023-04-15T00:41:45;8.70;97.20
1107;DHT22;540;49.448;8.612;2023-04-15T00:44:15;8.70;97.50
1107;DHT22;540;49.448;8.612;2023-04-15T00:46:44;8.60;98.40
1107;DHT22;540;49.448;8.612;2023-04-15T00:49:13;8.30;98.30
1107;DHT22;540;49.448;8.612;2023-04-15T00:51:41;8.30;99.70
1107;DHT22;540;49.448;8.612;2023-04-15T00:54:08;8.40;99.60
1107;DHT22;540;49.448;8.612;2023-04-15T00:56:38;8.00;98.50
1107;DHT22;540;49.448;8.612;2023-04-15T00:59:07;7.90;97.80
1107;DHT22;540;49.448;8.612;2023-04-15T01:01:36;7.80;97.90
1107;DHT22;540;49.448;8.612;2023-04-15T01:04:04;7.80;97.70
1107;DHT22;540;49.448;8.612;2023-04-15T01:06:33;7.80;97.10
1107;DHT22;540;49.448;8.612;2023-04-15T01:09:02;7.90;97.10
1107;DHT22;540;49.448;8.612;2023-04-15T01:11:31;7.90;97.20
1107;DHT22;540;49.448;8.612;2023-04-15T01:13:59;7.90;97.40
1107;DHT22;540;49.448;8.612;2023-04-15T01:16:27;7.70;97.20
1107;DHT22;540;49.448;8.612;2023-04-15T01:18:56;8.00;97.20
1107;DHT22;540;49.448;8.612;2023-04-15T01:21:25;7.80;96.80
1107;DHT22;540;49.448;8.612;2023-04-15T01:23:54;8.00;96.90
1107;DHT22;540;49.448;8.612;2023-04-15T01:26:25;8.00;96.50
1107;DHT22;540;49.448;8.612;2023-04-15T01:28:53;7.50;96.30
1107;DHT22;540;49.448;8.612;2023-04-15T01:31:21;8.20;97.00
1107;DHT22;540;49.448;8.612;2023-04-15T01:33:49;7.50;97.10
1107;DHT22;540;49.448;8.612;2023-04-15T01:36:17;7.80;98.80
1107;DHT22;540;49.448;8.612;2023-04-15T01:38:45;7.60;99.90
1107;DHT22;540;49.448;8.612;2023-04-15T01:41:13;7.70;99.90
1107;DHT22;540;49.448;8.612;2023-04-15T01:43:43;7.50;99.90
1107;DHT22;540;49.448;8.612;2023-04-15T01:46:11;6.80;99.90
1107;DHT22;540;49.448;8.612;2023-04-15T01:48:38;7.40;99.90
1107;DHT22;540;49.448;8.612;2023-04-15T01:51:06;7.10;99.90
1107;DHT22;540;49.448;8.612;2023-04-15T01:53:34;7.40;99.90
1107;DHT22;540;49.448;8.612;2023-04-15T01:56:03;7.20;99.90
1107;DHT22;540;49.448;8.612;2023-04-15T01:58:31;7.20;99.90
1107;DHT22;540;49.448;8.612;2023-04-15T02:01:00;7.50;99.90
1107;DHT22;540;49.448;8.612;2023-04-15T02:03:28;7.20;99.90
1107;DHT22;540;49.448;8.612;2023-04-15T02:05:56;7.30;99.90
1107;DHT22;540;49.448;8.612;2023-04-15T02:08:24;7.10;99.90
1107;DHT22;540;49.448;8.612;2023-04-15T02:10:52;7.40;99.90
1107;DHT22;540;49.448;8.612;2023-04-15T02:13:20;7.40;99.90
1107;DHT22;540;49.448;8.612;2023-04-15T02:15:48;7.30;99.90
1107;DHT22;540;49.448;8.612;2023-04-15T02:18:17;7.20;99.90
1107;DHT22;540;49.448;8.612;2023-04-15T02:20:45;7.30;99.90
1107;DHT22;540;49.448;8.612;2023-04-15T02:23:13;7.10;99.90
1107;DHT22;540;49.448;8.612;2023-04-15T02:25:41;7.30;99.90
1107;DHT22;540;49.448;8.612;2023-04-15T02:28:19;7.20;99.90
1107;DHT22;540;49.448;8.612;2023-04-15T02:30:47;7.40;99.90
1107;DHT22;540;49.448;8.612;2023-04-15T02:33:20;7.50;98.90
1107;DHT22;540;49.448;8.612;2023-04-15T02:35:48;7.50;98.30
1107;DHT22;540;49.448;8.612;2023-04-15T02:38:16;7.50;98.60
1107;DHT22;540;49.448;8.612;2023-04-15T02:40:44;7.40;98.80
1107;DHT22;540;49.448;8.612;2023-04-15T02:43:12;7.40;98.50
1107;DHT22;540;49.448;8.612;2023-04-15T02:45:39;7.10;99.90
1107;DHT22;540;49.448;8.612;2023-04-15T02:48:09;7.10;99.90
1107;DHT22;540;49.448;8.612;2023-04-15T02:50:38;7.30;99.90
1107;DHT22;540;49.448;8.612;2023-04-15T02:53:06;7.30;99.90
1107;DHT22;540;49.448;8.612;2023-04-15T02:55:34;7.00;99.90
1107;DHT22;540;49.448;8.612;2023-04-15T02:58:02;7.10;99.90
1107;DHT22;540;49.448;8.612;2023-04-15T03:00:30;6.80;99.90
1107;DHT22;540;49.448;8.612;2023-04-15T03:03:02;6.80;99.90
1107;DHT22;540;49.448;8.612;2023-04-15T03:05:31;6.70;99.90
1107;DHT22;540;49.448;8.612;2023-04-15T03:08:00;6.90;99.90
1107;DHT22;540;49.448;8.612;2023-04-15T03:10:28;6.90;99.90
1107;DHT22;540;49.448;8.612;2023-04-15T03:12:56;6.90;99.90
1107;DHT22;540;49.448;8.612;2023-04-15T03:15:24;6.80;99.90
1107;DHT22;540;49.448;8.612;2023-04-15T03:17:52;6.80;99.90
1107;DHT22;540;49.448;8.612;2023-04-15T03:20:20;6.90;99.90
1107;DHT22;540;49.448;8.612;2023-04-15T03:22:48;6.70;99.90
1107;DHT22;540;49.448;8.612;2023-04-15T03:25:17;6.80;99.90
1107;DHT22;540;49.448;8.612;2023-04-15T03:27:45;6.70;99.90
1107;DHT22;540;49.448;8.612;2023-04-15T03:30:13;6.60;99.90
1107;DHT22;540;49.448;8.612;2023-04-15T03:32:40;6.50;99.90
1107;DHT22;540;49.448;8.612;2023-04-15T03:35:08;6.70;99.90
1107;DHT22;540;49.448;8.612;2023-04-15T03:37:36;6.50;99.90
1107;DHT22;540;49.448;8.612;2023-04-15T03:40:05;6.80;99.90
1107;DHT22;540;49.448;8.612;2023-04-15T03:42:34;6.90;99.90
1107;DHT22;540;49.448;8.612;2023-04-15T03:45:02;7.00;99.90
1107;DHT22;540;49.448;8.612;2023-04-15T03:47:30;7.00;99.90
1107;DHT22;540;49.448;8.612;2023-04-15T03:49:58;7.30;99.90
1107;DHT22;540;49.448;8.612;2023-04-15T03:52:26;6.50;99.90
1107;DHT22;540;49.448;8.612;2023-04-15T03:54:54;6.80;99.90
1107;DHT22;540;49.448;8.612;2023-04-15T03:57:22;6.90;99.90
1107;DHT22;540;49.448;8.612;2023-04-15T03:59:51;7.00;99.90
1107;DHT22;540;49.448;8.612;2023-04-15T04:02:18;6.90;99.90
1107;DHT22;540;49.448;8.612;2023-04-15T04:04:46;7.20;99.90
1107;DHT22;540;49.448;8.612;2023-04-15T04:07:15;6.90;99.90
1107;DHT22;540;49.448;8.612;2023-04-15T04:09:43;6.90;99.90
1107;DHT22;540;49.448;8.612;2023-04-15T04:12:13;6.80;99.90
1107;DHT22;540;49.448;8.612;2023-04-15T04:14:41;7.00;99.90
1107;DHT22;540;49.448;8.612;2023-04-15T04:17:10;7.00;99.90
1107;DHT22;540;49.448;8.612;2023-04-15T04:19:38;6.90;99.90
1107;DHT22;540;49.448;8.612;2023-04-15T04:22:05;7.10;99.90
1107;DHT22;540;49.448;8.612;2023-04-15T04:24:33;7.20;99.90
1107;DHT22;540;49.448;8.612;2023-04-15T04:27:01;6.90;99.90
1107;DHT22;540;49.448;8.612;2023-04-15T04:29:29;7.10;99.90
1107;DHT22;540;49.448;8.612;2023-04-15T04:31:56;7.10;99.90
1107;DHT22;540;49.448;8.612;2023-04-15T04:34:26;6.90;99.90
1107;DHT22;540;49.448;8.612;2023-04-15T04:36:53;7.00;99.90
1107;DHT22;540;49.448;8.612;2023-04-15T04:39:22;6.90;99.90
1107;DHT22;540;49.448;8.612;2023-04-15T04:41:49;7.10;99.90
1107;DHT22;540;49.448;8.612;2023-04-15T04:44:17;7.10;99.90
1107;DHT22;540;49.448;8.612;2023-04-15T04:46:45;7.00;99.90
1107;DHT22;540;49.448;8.612;2023-04-15T04:49:13;6.70;99.90
1107;DHT22;540;49.448;8.612;2023-04-15T04:51:42;7.00;99.90
1107;DHT22;540;49.448;8.612;2023-04-15T04:54:10;6.60;99.90
1107;DHT22;540;49.448;8.612;2023-04-15T04:56:38;6.90;99.90
1107;DHT22;540;49.448;8.612;2023-04-15T04:59:06;7.20;99.90
1107;DHT22;540;49.448;8.612;2023-04-15T05:01:34;6.80;99.90
1107;DHT22;540;49.448;8.612;2023-04-15T05:04:02;6.90;99.90
1107;DHT22;540;49.448;8.612;2023-04-15T05:06:31;6.90;99.90
1107;DHT22;540;49.448;8.612;2023-04-15T05:09:00;6.90;99.90
1107;DHT22;540;49.448;8.612;2023-04-15T05:11:29;6.90;99.90
1107;DHT22;540;49.448;8.612;2023-04-15T05:13:56;6.60;99.90
1107;DHT22;540;49.448;8.612;2023-04-15T05:16:25;6.80;99.90
1107;DHT22;540;49.448;8.612;2023-04-15T05:18:53;6.90;99.90
1107;DHT22;540;49.448;8.612;2023-04-15T05:21:21;7.00;99.90
1107;DHT22;540;49.448;8.612;2023-04-15T05:23:49;6.70;99.90
1107;DHT22;540;49.448;8.612;2023-04-15T05:26:18;6.90;99.90
1107;DHT22;540;49.448;8.612;2023-04-15T05:28:47;6.90;99.90
1107;DHT22;540;49.448;8.612;2023-04-15T05:31:15;7.00;99.90
1107;DHT22;540;49.448;8.612;2023-04-15T05:33:43;6.90;99.90
1107;DHT22;540;49.448;8.612;2023-04-15T05:36:10;6.80;99.90
1107;DHT22;540;49.448;8.612;2023-04-15T05:38:38;6.80;99.90
1107;DHT22;540;49.448;8.612;2023-04-15T05:41:06;6.90;99.90
1107;DHT22;540;49.448;8.612;2023-04-15T05:43:36;6.80;99.90
1107;DHT22;540;49.448;8.612;2023-04-15T05:46:04;7.00;99.90
1107;DHT22;540;49.448;8.612;2023-04-15T05:48:32;6.90;99.90
1107;DHT22;540;49.448;8.612;2023-04-15T05:51:00;7.10;99.90
1107;DHT22;540;49.448;8.612;2023-04-15T05:53:27;7.00;99.90
1107;DHT22;540;49.448;8.612;2023-04-15T05:55:55;7.10;99.90
1107;DHT22;540;49.448;8.612;2023-04-15T05:58:23;7.30;99.90
1107;DHT22;540;49.448;8.612;2023-04-15T06:00:52;7.40;99.90
1107;DHT22;540;49.448;8.612;2023-04-15T06:03:20;7.60;99.30
1107;DHT22;540;49.448;8.612;2023-04-15T06:05:49;7.50;98.50
1107;DHT22;540;49.448;8.612;2023-04-15T06:08:17;7.60;98.30
1107;DHT22;540;49.448;8.612;2023-04-15T06:10:45;7.90;98.20
1107;DHT22;540;49.448;8.612;2023-04-15T06:13:13;7.60;97.60
1107;DHT22;540;49.448;8.612;2023-04-15T06:15:40;7.80;97.50
1107;DHT22;540;49.448;8.612;2023-04-15T06:18:10;7.80;98.00
1107;DHT22;540;49.448;8.612;2023-04-15T06:20:38;7.80;99.90
1107;DHT22;540;49.448;8.612;2023-04-15T06:23:07;7.90;99.90
1107;DHT22;540;49.448;8.612;2023-04-15T06:25:35;7.80;99.90
1107;DHT22;540;49.448;8.612;2023-04-15T06:28:03;7.90;99.90
1107;DHT22;540;49.448;8.612;2023-04-15T06:30:30;8.00;99.90
1107;DHT22;540;49.448;8.612;2023-04-15T06:32:58;8.40;99.30
1107;DHT22;540;49.448;8.612;2023-04-15T06:35:27;8.50;98.60
1107;DHT22;540;49.448;8.612;2023-04-15T06:37:55;9.20;97.20
1107;DHT22;540;49.448;8.612;2023-04-15T06:40:23;10.70;91.80
1107;DHT22;540;49.448;8.612;2023-04-15T06:42:51;12.50;81.90
1107;DHT22;540;49.448;8.612;2023-04-15T06:45:18;13.90;71.70
1107;DHT22;540;49.448;8.612;2023-04-15T06:47:46;15.00;65.00
1107;DHT22;540;49.448;8.612;2023-04-15T06:50:14;15.90;60.40
1107;DHT22;540;49.448;8.612;2023-04-15T06:52:43;16.60;57.60
1107;DHT22;540;49.448;8.612;2023-04-15T06:55:11;17.00;55.60
1107;DHT22;540;49.448;8.612;2023-04-15T06:57:40;17.20;54.90
1107;DHT22;540;49.448;8.612;2023-04-15T07:00:08;17.60;55.00
1107;DHT22;540;49.448;8.612;2023-04-15T07:02:37;17.20;54.60
1107;DHT22;540;49.448;8.612;2023-04-15T07:05:06;16.50;55.40
1107;DHT22;540;49.448;8.612;2023-04-15T07:07:34;15.70;57.00
1107;DHT22;540;49.448;8.612;2023-04-15T07:10:04;15.40;58.20
1107;DHT22;540;49.448;8.612;2023-04-15T07:12:32;15.30;58.40
1107;DHT22;540;49.448;8.612;2023-04-15T07:15:01;15.00;58.90
1107;DHT22;540;49.448;8.612;2023-04-15T07:17:29;14.60;59.80
1107;DHT22;540;49.448;8.612;2023-04-15T07:19:57;15.20;60.50
1107;DHT22;540;49.448;8.612;2023-04-15T07:22:24;14.90;59.80
1107;DHT22;540;49.448;8.612;2023-04-15T07:24:52;15.00;60.30
1107;DHT22;540;49.448;8.612;2023-04-15T07:27:22;15.50;59.70
1107;DHT22;540;49.448;8.612;2023-04-15T07:29:49;15.60;58.60
1107;DHT22;540;49.448;8.612;2023-04-15T07:32:17;15.70;59.30
1107;DHT22;540;49.448;8.612;2023-04-15T07:34:45;15.40;59.50
1107;DHT22;540;49.448;8.612;2023-04-15T07:37:13;15.00;59.00
1107;DHT22;540;49.448;8.612;2023-04-15T07:39:41;15.10;60.10
1107;DHT22;540;49.448;8.612;2023-04-15T07:42:09;14.90;61.40
1107;DHT22;540;49.448;8.612;2023-04-15T07:44:38;14.70;62.00
1107;DHT22;540;49.448;8.612;2023-04-15T07:47:06;15.10;61.70
1107;DHT22;540;49.448;8.612;2023-04-15T07:49:34;14.70;62.10
1107;DHT22;540;49.448;8.612;2023-04-15T07:52:02;14.70;62.80
1107;DHT22;540;49.448;8.612;2023-04-15T07:54:30;14.80;63.40
1107;DHT22;540;49.448;8.612;2023-04-15T07:56:57;14.50;62.40
1107;DHT22;540;49.448;8.612;2023-04-15T07:59:25;14.50;63.60
1107;DHT22;540;49.448;8.612;2023-04-15T08:01:57;14.70;63.30
1107;DHT22;540;49.448;8.612;2023-04-15T08:04:27;15.20;61.40
1107;DHT22;540;49.448;8.612;2023-04-15T08:06:58;16.80;58.60
1107;DHT22;540;49.448;8.612;2023-04-15T08:09:27;18.50;52.60
1107;DHT22;540;49.448;8.612;2023-04-15T08:11:57;19.00;49.70
1107;DHT22;540;49.448;8.612;2023-04-15T08:14:27;20.60;46.70
1107;DHT22;540;49.448;8.612;2023-04-15T08:16:59;21.40;44.30
1107;DHT22;540;49.448;8.612;2023-04-15T08:19:29;21.30;42.90
1107;DHT22;540;49.448;8.612;2023-04-15T08:21:59;21.10;44.10
1107;DHT22;540;49.448;8.612;2023-04-15T08:24:30;20.60;44.30
1107;DHT22;540;49.448;8.612;2023-04-15T08:27:00;20.30;45.20
1107;DHT22;540;49.448;8.612;2023-04-15T08:29:32;20.40;44.50
1107;DHT22;540;49.448;8.612;2023-04-15T08:32:04;20.90;43.70
1107;DHT22;540;49.448;8.612;2023-04-15T08:34:33;21.30;43.10
1107;DHT22;540;49.448;8.612;2023-04-15T08:37:02;21.00;42.30
1107;DHT22;540;49.448;8.612;2023-04-15T08:39:33;21.30;42.10
1107;DHT22;540;49.448;8.612;2023-04-15T08:42:03;21.90;42.00
1107;DHT22;540;49.448;8.612;2023-04-15T08:44:36;22.40;40.00
1107;DHT22;540;49.448;8.612;2023-04-15T08:47:07;22.10;40.30
1107;DHT22;540;49.448;8.612;2023-04-15T08:49:39;21.60;40.40
1107;DHT22;540;49.448;8.612;2023-04-15T08:52:09;21.30;41.70
1107;DHT22;540;49.448;8.612;2023-04-15T08:54:38;20.60;42.60
1107;DHT22;540;49.448;8.612;2023-04-15T08:57:08;20.70;43.00
1107;DHT22;540;49.448;8.612;2023-04-15T08:59:36;21.60;41.30
1107;DHT22;540;49.448;8.612;2023-04-15T09:02:06;22.30;38.80
1107;DHT22;540;49.448;8.612;2023-04-15T09:04:34;22.60;38.50
1107;DHT22;540;49.448;8.612;2023-04-15T09:07:02;23.10;37.70
1107;DHT22;540;49.448;8.612;2023-04-15T09:09:30;22.90;38.50
1107;DHT22;540;49.448;8.612;2023-04-15T09:12:00;23.30;38.00
1107;DHT22;540;49.448;8.612;2023-04-15T09:14:28;23.70;37.20
1107;DHT22;540;49.448;8.612;2023-04-15T09:16:58;24.00;36.10
1107;DHT22;540;49.448;8.612;2023-04-15T09:19:29;24.10;35.20
1107;DHT22;540;49.448;8.612;2023-04-15T09:21:59;23.60;36.40
1107;DHT22;540;49.448;8.612;2023-04-15T09:24:35;23.40;36.50
1107;DHT22;540;49.448;8.612;2023-04-15T09:27:04;23.10;36.40
1107;DHT22;540;49.448;8.612;2023-04-15T09:29:32;22.70;37.20
1107;DHT22;540;49.448;8.612;2023-04-15T09:32:09;21.50;38.50
1107;DHT22;540;49.448;8.612;2023-04-15T09:34:39;21.00;40.90
1107;DHT22;540;49.448;8.612;2023-04-15T09:37:07;19.90;41.00
1107;DHT22;540;49.448;8.612;2023-04-15T09:39:47;20.00;42.20
1107;DHT22;540;49.448;8.612;2023-04-15T09:42:16;20.20;43.00
1107;DHT22;540;49.448;8.612;2023-04-15T09:44:49;20.10;43.20
1107;DHT22;540;49.448;8.612;2023-04-15T09:47:26;19.60;44.30
1107;DHT22;540;49.448;8.612;2023-04-15T09:49:56;19.70;44.60
1107;DHT22;540;49.448;8.612;2023-04-15T09:52:25;20.10;43.70
1107;DHT22;540;49.448;8.612;2023-04-15T09:54:53;20.00;43.20
1107;DHT22;540;49.448;8.612;2023-04-15T09:57:22;19.50;44.30
1107;DHT22;540;49.448;8.612;2023-04-15T09:59:51;19.60;44.80
1107;DHT22;540;49.448;8.612;2023-04-15T10:02:19;20.00;44.30
1107;DHT22;540;49.448;8.612;2023-04-15T10:04:47;20.10;44.10
1107;DHT22;540;49.448;8.612;2023-04-15T10:07:16;20.00;44.30
1107;DHT22;540;49.448;8.612;2023-04-15T10:09:47;20.00;43.50
1107;DHT22;540;49.448;8.612;2023-04-15T10:12:16;20.40;44.10
1107;DHT22;540;49.448;8.612;2023-04-15T10:14:46;19.80;43.60
1107;DHT22;540;49.448;8.612;2023-04-15T10:17:17;19.40;44.00
1107;DHT22;540;49.448;8.612;2023-04-15T10:19:45;19.50;45.40
1107;DHT22;540;49.448;8.612;2023-04-15T10:22:13;19.30;46.30
1107;DHT22;540;49.448;8.612;2023-04-15T10:24:44;19.10;46.10
1107;DHT22;540;49.448;8.612;2023-04-15T10:27:13;19.40;45.80
1107;DHT22;540;49.448;8.612;2023-04-15T10:29:41;19.50;45.80
1107;DHT22;540;49.448;8.612;2023-04-15T10:32:10;19.30;46.20
1107;DHT22;540;49.448;8.612;2023-04-15T10:34:39;19.30;45.60
1107;DHT22;540;49.448;8.612;2023-04-15T10:37:09;19.10;44.40
1107;DHT22;540;49.448;8.612;2023-04-15T10:39:39;19.00;44.30
1107;DHT22;540;49.448;8.612;2023-04-15T10:42:09;18.90;44.40
1107;DHT22;540;49.448;8.612;2023-04-15T10:44:38;19.00;44.10
1107;DHT22;540;49.448;8.612;2023-04-15T10:47:09;18.80;43.40
1107;DHT22;540;49.448;8.612;2023-04-15T10:49:46;18.40;43.30
1107;DHT22;540;49.448;8.612;2023-04-15T10:52:14;18.00;43.60
1107;DHT22;540;49.448;8.612;2023-04-15T10:54:43;17.80;44.70
1107;DHT22;540;49.448;8.612;2023-04-15T10:57:20;17.60;45.30
1107;DHT22;540;49.448;8.612;2023-04-15T11:00:17;17.40;45.20
1107;DHT22;540;49.448;8.612;2023-04-15T11:02:46;17.50;45.20
1107;DHT22;540;49.448;8.612;2023-04-15T11:05:15;17.50;44.00
1107;DHT22;540;49.448;8.612;2023-04-15T11:07:49;17.90;44.20
1107;DHT22;540;49.448;8.612;2023-04-15T11:10:50;17.70;43.30
1107;DHT22;540;49.448;8.612;2023-04-15T11:13:24;17.80;43.50
1107;DHT22;540;49.448;8.612;2023-04-15T11:15:58;17.70;42.10
1107;DHT22;540;49.448;8.612;2023-04-15T11:18:29;17.80;41.00
1107;DHT22;540;49.448;8.612;2023-04-15T11:21:03;17.60;41.50
1107;DHT22;540;49.448;8.612;2023-04-15T11:23:33;17.20;41.60
1107;DHT22;540;49.448;8.612;2023-04-15T11:26:02;17.80;42.20
1107;DHT22;540;49.448;8.612;2023-04-15T11:28:36;17.40;42.50
1107;DHT22;540;49.448;8.612;2023-04-15T11:31:07;16.90;43.20
1107;DHT22;540;49.448;8.612;2023-04-15T11:33:37;17.00;43.80
1107;DHT22;540;49.448;8.612;2023-04-15T11:36:05;16.90;44.40
1107;DHT22;540;49.448;8.612;2023-04-15T11:38:33;16.50;43.90
1107;DHT22;540;49.448;8.612;2023-04-15T11:41:01;16.80;44.40
1107;DHT22;540;49.448;8.612;2023-04-15T11:43:31;16.10;43.70
1107;DHT22;540;49.448;8.612;2023-04-15T11:46:02;16.30;44.20
1107;DHT22;540;49.448;8.612;2023-04-15T11:48:32;16.50;44.50
1107;DHT22;540;49.448;8.612;2023-04-15T11:51:01;16.30;44.80
1107;DHT22;540;49.448;8.612;2023-04-15T11:53:36;15.80;44.40
1107;DHT22;540;49.448;8.612;2023-04-15T11:56:05;16.30;45.20
1107;DHT22;540;49.448;8.612;2023-04-15T11:58:34;16.40;46.00
1107;DHT22;540;49.448;8.612;2023-04-15T12:01:05;16.10;45.30
1107;DHT22;540;49.448;8.612;2023-04-15T12:03:36;16.30;45.30
1107;DHT22;540;49.448;8.612;2023-04-15T12:06:06;16.50;44.80
1107;DHT22;540;49.448;8.612;2023-04-15T12:08:52;16.60;44.70
1107;DHT22;540;49.448;8.612;2023-04-15T12:11:30;16.50;44.90
1107;DHT22;540;49.448;8.612;2023-04-15T12:14:03;16.90;44.90
1107;DHT22;540;49.448;8.612;2023-04-15T12:16:33;16.70;44.40
1107;DHT22;540;49.448;8.612;2023-04-15T12:19:16;16.70;44.50
1107;DHT22;540;49.448;8.612;2023-04-15T12:21:46;16.60;44.40
1107;DHT22;540;49.448;8.612;2023-04-15T12:24:14;16.50;45.60
1107;DHT22;540;49.448;8.612;2023-04-15T12:26:43;16.40;46.10
1107;DHT22;540;49.448;8.612;2023-04-15T12:29:13;16.50;46.00
1107;DHT22;540;49.448;8.612;2023-04-15T12:31:51;16.40;46.30
1107;DHT22;540;49.448;8.612;2023-04-15T12:34:26;16.10;46.50
1107;DHT22;540;49.448;8.612;2023-04-15T12:36:55;16.00;47.60
1107;DHT22;540;49.448;8.612;2023-04-15T12:39:24;16.10;48.70
1107;DHT22;540;49.448;8.612;2023-04-15T12:41:55;15.90;48.60
1107;DHT22;540;49.448;8.612;2023-04-15T12:44:23;15.90;48.40
1107;DHT22;540;49.448;8.612;2023-04-15T12:46:52;15.80;47.60
1107;DHT22;540;49.448;8.612;2023-04-15T12:49:21;16.00;47.80
1107;DHT22;540;49.448;8.612;2023-04-15T12:51:50;15.90;47.70
1107;DHT22;540;49.448;8.612;2023-04-15T12:54:18;16.20;47.40
1107;DHT22;540;49.448;8.612;2023-04-15T12:56:47;15.70;45.00
1107;DHT22;540;49.448;8.612;2023-04-15T12:59:16;16.40;45.60
1107;DHT22;540;49.448;8.612;2023-04-15T13:01:45;15.90;46.20
1107;DHT22;540;49.448;8.612;2023-04-15T13:04:15;16.40;46.80
1107;DHT22;540;49.448;8.612;2023-04-15T13:06:43;16.30;46.60
1107;DHT22;540;49.448;8.612;2023-04-15T13:09:11;16.40;45.00
1107;DHT22;540;49.448;8.612;2023-04-15T13:11:39;16.50;44.00
1107;DHT22;540;49.448;8.612;2023-04-15T13:14:08;16.40;42.70
1107;DHT22;540;49.448;8.612;2023-04-15T13:16:37;15.70;40.20
1107;DHT22;540;49.448;8.612;2023-04-15T13:19:05;16.10;39.40
1107;DHT22;540;49.448;8.612;2023-04-15T13:21:34;16.00;39.90
1107;DHT22;540;49.448;8.612;2023-04-15T13:24:03;16.10;41.00
1107;DHT22;540;49.448;8.612;2023-04-15T13:26:33;15.80;42.00
1107;DHT22;540;49.448;8.612;2023-04-15T13:29:00;15.30;42.20
1107;DHT22;540;49.448;8.612;2023-04-15T13:31:28;15.90;42.20
1107;DHT22;540;49.448;8.612;2023-04-15T13:33:56;15.90;42.30
1107;DHT22;540;49.448;8.612;2023-04-15T13:36:24;16.20;43.10
1107;DHT22;540;49.448;8.612;2023-04-15T13:38:54;16.10;43.40
1107;DHT22;540;49.448;8.612;2023-04-15T13:41:22;16.10;43.00
1107;DHT22;540;49.448;8.612;2023-04-15T13:43:50;16.20;43.40
1107;DHT22;540;49.448;8.612;2023-04-15T13:46:18;15.80;44.10
1107;DHT22;540;49.448;8.612;2023-04-15T13:48:46;16.10;44.40
1107;DHT22;540;49.448;8.612;2023-04-15T13:51:14;16.00;46.00
1107;DHT22;540;49.448;8.612;2023-04-15T13:53:42;15.70;48.00
1107;DHT22;540;49.448;8.612;2023-04-15T13:56:11;15.50;49.40
1107;DHT22;540;49.448;8.612;2023-04-15T13:58:39;15.30;50.20
1107;DHT22;540;49.448;8.612;2023-04-15T14:01:07;15.00;51.60
1107;DHT22;540;49.448;8.612;2023-04-15T14:03:35;15.20;52.80
1107;DHT22;540;49.448;8.612;2023-04-15T14:06:04;15.10;52.70
1107;DHT22;540;49.448;8.612;2023-04-15T14:08:32;15.40;52.90
1107;DHT22;540;49.448;8.612;2023-04-15T14:11:00;15.20;52.50
1107;DHT22;540;49.448;8.612;2023-04-15T14:13:29;15.50;52.10
1107;DHT22;540;49.448;8.612;2023-04-15T14:15:57;15.30;52.20
1107;DHT22;540;49.448;8.612;2023-04-15T14:18:24;15.50;52.50
1107;DHT22;540;49.448;8.612;2023-04-15T14:20:52;15.60;53.50
1107;DHT22;540;49.448;8.612;2023-04-15T14:23:20;15.50;53.80
1107;DHT22;540;49.448;8.612;2023-04-15T14:25:48;15.50;53.50
1107;DHT22;540;49.448;8.612;2023-04-15T14:28:16;15.50;54.10
1107;DHT22;540;49.448;8.612;2023-04-15T14:30:45;15.50;54.10
1107;DHT22;540;49.448;8.612;2023-04-15T14:33:13;15.60;54.70
1107;DHT22;540;49.448;8.612;2023-04-15T14:35:41;15.20;55.90
1107;DHT22;540;49.448;8.612;2023-04-15T14:38:09;15.10;57.10
1107;DHT22;540;49.448;8.612;2023-04-15T14:40:37;15.00;59.40
1107;DHT22;540;49.448;8.612;2023-04-15T14:43:05;14.80;61.00
1107;DHT22;540;49.448;8.612;2023-04-15T14:45:33;14.30;63.10
1107;DHT22;540;49.448;8.612;2023-04-15T14:48:03;14.20;65.40
1107;DHT22;540;49.448;8.612;2023-04-15T14:50:32;14.30;67.10
1107;DHT22;540;49.448;8.612;2023-04-15T14:53:00;14.20;68.60
1107;DHT22;540;49.448;8.612;2023-04-15T14:55:27;14.00;68.70
1107;DHT22;540;49.448;8.612;2023-04-15T14:57:55;13.80;69.80
1107;DHT22;540;49.448;8.612;2023-04-15T15:00:23;14.10;71.00
1107;DHT22;540;49.448;8.612;2023-04-15T15:02:51;13.80;71.10
1107;DHT22;540;49.448;8.612;2023-04-15T15:05:20;13.60;72.20
1107;DHT22;540;49.448;8.612;2023-04-15T15:07:48;13.50;73.10
1107;DHT22;540;49.448;8.612;2023-04-15T15:10:16;13.50;75.20
1107;DHT22;540;49.448;8.612;2023-04-15T15:13:05;13.10;75.60
1107;DHT22;540;49.448;8.612;2023-04-15T15:15:33;13.50;77.90
1107;DHT22;540;49.448;8.612;2023-04-15T15:18:01;13.50;78.60
1107;DHT22;540;49.448;8.612;2023-04-15T15:20:30;12.90;77.30
1107;DHT22;540;49.448;8.612;2023-04-15T15:22:59;13.20;80.10
1107;DHT22;540;49.448;8.612;2023-04-15T15:25:27;12.90;81.00
1107;DHT22;540;49.448;8.612;2023-04-15T15:27:56;13.20;83.10
1107;DHT22;540;49.448;8.612;2023-04-15T15:30:24;13.00;84.30
1107;DHT22;540;49.448;8.612;2023-04-15T15:32:52;12.90;86.40
1107;DHT22;540;49.448;8.612;2023-04-15T15:35:20;12.90;87.10
1107;DHT22;540;49.448;8.612;2023-04-15T15:37:50;12.20;89.30
1107;DHT22;540;49.448;8.612;2023-04-15T15:40:19;12.70;91.00
1107;DHT22;540;49.448;8.612;2023-04-15T15:42:47;12.70;91.60
1107;DHT22;540;49.448;8.612;2023-04-15T15:45:16;13.00;92.10
1107;DHT22;540;49.448;8.612;2023-04-15T15:47:44;12.90;91.90
1107;DHT22;540;49.448;8.612;2023-04-15T15:50:12;12.80;93.00
1107;DHT22;540;49.448;8.612;2023-04-15T15:52:40;12.80;93.70
1107;DHT22;540;49.448;8.612;2023-04-15T15:55:09;12.80;93.90
1107;DHT22;540;49.448;8.612;2023-04-15T15:57:37;12.80;95.10
1107;DHT22;540;49.448;8.612;2023-04-15T16:00:06;12.40;94.80
1107;DHT22;540;49.448;8.612;2023-04-15T16:02:38;12.80;95.90
1107;DHT22;540;49.448;8.612;2023-04-15T16:05:09;12.20;95.60
1107;DHT22;540;49.448;8.612;2023-04-15T16:07:37;12.40;96.00
1107;DHT22;540;49.448;8.612;2023-04-15T16:10:06;12.10;97.20
1107;DHT22;540;49.448;8.612;2023-04-15T16:12:35;12.70;97.30
1107;DHT22;540;49.448;8.612;2023-04-15T16:15:04;12.00;96.10
1107;DHT22;540;49.448;8.612;2023-04-15T16:17:32;12.40;96.30
1107;DHT22;540;49.448;8.612;2023-04-15T16:19:59;12.40;95.60
1107;DHT22;540;49.448;8.612;2023-04-15T16:22:30;12.30;96.10
1107;DHT22;540;49.448;8.612;2023-04-15T16:24:58;12.50;96.80
1107;DHT22;540;49.448;8.612;2023-04-15T16:27:27;12.30;97.70
1107;DHT22;540;49.448;8.612;2023-04-15T16:29:56;12.50;97.90
1107;DHT22;540;49.448;8.612;2023-04-15T16:32:25;12.30;98.00
1107;DHT22;540;49.448;8.612;2023-04-15T16:34:53;12.40;97.90
1107;DHT22;540;49.448;8.612;2023-04-15T16:37:20;12.40;98.00